sensor_id;sensor_type;location;lat;lon;timestamp;P1;durP1;ratioP1;P2;durP2;ratioP2
3085;SDS011;52812;48.960;9.108;2023-07-24T00:00:14;9.00;;;5.93;;
3085;SDS011;52812;48.960;9.108;2023-07-24T00:02:40;12.90;;;6.53;;
3085;SDS011;52812;48.960;9.108;2023-07-24T00:05:05;12.53;;;5.70;;
3085;SDS011;52812;48.960;9.108;2023-07-24T00:07:31;10.80;;;6.30;;
3085;SDS011;52812;48.960;9.108;2023-07-24T00:09:57;11.10;;;6.17;;
3085;SDS011;52812;48.960;9.108;2023-07-24T00:12:22;11.60;;;6.27;;
3085;SDS011;52812;48.960;9.108;2023-07-24T00:14:48;10.67;;;6.30;;
3085;SDS011;52812;48.960;9.108;2023-07-24T00:17:14;9.73;;;6.00;;
3085;SDS011;52812;48.960;9.108;2023-07-24T00:19:39;10.60;;;6.20;;
3085;SDS011;52812;48.960;9.108;2023-07-24T00:22:05;10.83;;;6.17;;
3085;SDS011;52812;48.960;9.108;2023-07-24T00:24:31;9.23;;;5.70;;
3085;SDS011;52812;48.960;9.108;2023-07-24T00:26:57;11.87;;;6.00;;
3085;SDS011;52812;48.960;9.108;2023-07-24T00:29:23;12.83;;;6.07;;
3085;SDS011;52812;48.960;9.108;2023-07-24T00:31:48;11.73;;;6.00;;
3085;SDS011;52812;48.960;9.108;2023-07-24T00:34:14;10.60;;;5.90;;
3085;SDS011;52812;48.960;9.108;2023-07-24T00:36:40;8.43;;;5.50;;
3085;SDS011;52812;48.960;9.108;2023-07-24T00:39:06;10.10;;;6.30;;
3085;SDS011;52812;48.960;9.108;2023-07-24T00:41:32;9.90;;;5.70;;
3085;SDS011;52812;48.960;9.108;2023-07-24T00:43:57;8.63;;;5.63;;
3085;SDS011;52812;48.960;9.108;2023-07-24T00:46:24;8.40;;;5.57;;
3085;SDS011;52812;48.960;9.108;2023-07-24T00:48:50;11.00;;;5.90;;
3085;SDS011;52812;48.960;9.108;2023-07-24T00:51:16;11.20;;;6.00;;
3085;SDS011;52812;48.960;9.108;2023-07-24T00:53:42;12.23;;;6.30;;
3085;SDS011;52812;48.960;9.108;2023-07-24T00:56:08;7.87;;;5.53;;
3085;SDS011;52812;48.960;9.108;2023-07-24T00:58:35;9.67;;;5.50;;
3085;SDS011;52812;48.960;9.108;2023-07-24T01:01:03;11.73;;;6.00;;
3085;SDS011;52812;48.960;9.108;2023-07-24T01:03:31;9.97;;;5.80;;
3085;SDS011;52812;48.960;9.108;2023-07-24T01:06:00;9.40;;;6.43;;
3085;SDS011;52812;48.960;9.108;2023-07-24T01:08:26;9.93;;;6.07;;
3085;SDS011;52812;48.960;9.108;2023-07-24T01:10:52;10.30;;;5.63;;
3085;SDS011;52812;48.960;9.108;2023-07-24T01:13:21;9.40;;;6.27;;
3085;SDS011;52812;48.960;9.108;2023-07-24T01:15:50;10.63;;;6.20;;
3085;SDS011;52812;48.960;9.108;2023-07-24T01:18:25;10.90;;;6.10;;
3085;SDS011;52812;48.960;9.108;2023-07-24T01:20:53;9.67;;;5.73;;
3085;SDS011;52812;48.960;9.108;2023-07-24T01:28:25;11.07;;;6.03;;
3085;SDS011;52812;48.960;9.108;2023-07-24T01:30:51;10.87;;;6.00;;
3085;SDS011;52812;48.960;9.108;2023-07-24T01:33:18;8.87;;;5.10;;
3085;SDS011;52812;48.960;9.108;2023-07-24T01:35:45;11.60;;;6.13;;
3085;SDS011;52812;48.960;9.108;2023-07-24T01:38:25;10.27;;;5.67;;
3085;SDS011;52812;48.960;9.108;2023-07-24T01:40:52;11.83;;;6.00;;
3085;SDS011;52812;48.960;9.108;2023-07-24T01:43:19;9.60;;;5.50;;
3085;SDS011;52812;48.960;9.108;2023-07-24T01:45:45;9.10;;;5.77;;
3085;SDS011;52812;48.960;9.108;2023-07-24T01:48:10;9.67;;;5.60;;
3085;SDS011;52812;48.960;9.108;2023-07-24T01:50:36;11.30;;;5.67;;
3085;SDS011;52812;48.960;9.108;2023-07-24T01:53:02;10.90;;;5.77;;
3085;SDS011;52812;48.960;9.108;2023-07-24T01:55:27;10.00;;;5.70;;
3085;SDS011;52812;48.960;9.108;2023-07-24T01:57:53;11.73;;;5.77;;
3085;SDS011;52812;48.960;9.108;2023-07-24T02:00:19;10.03;;;5.77;;
3085;SDS011;52812;48.960;9.108;2023-07-24T02:02:44;9.80;;;5.40;;
3085;SDS011;52812;48.960;9.108;2023-07-24T02:05:10;11.03;;;6.50;;
3085;SDS011;52812;48.960;9.108;2023-07-24T02:07:37;8.83;;;5.50;;
3085;SDS011;52812;48.960;9.108;2023-07-24T02:10:03;10.67;;;6.60;;
3085;SDS011;52812;48.960;9.108;2023-07-24T02:12:28;10.93;;;5.67;;
3085;SDS011;52812;48.960;9.108;2023-07-24T02:14:54;11.03;;;5.67;;
3085;SDS011;52812;48.960;9.108;2023-07-24T02:17:20;9.97;;;5.90;;
3085;SDS011;52812;48.960;9.108;2023-07-24T02:19:46;12.83;;;7.17;;
3085;SDS011;52812;48.960;9.108;2023-07-24T02:22:12;9.07;;;5.63;;
3085;SDS011;52812;48.960;9.108;2023-07-24T02:24:37;10.13;;;5.97;;
3085;SDS011;52812;48.960;9.108;2023-07-24T02:27:04;10.80;;;6.23;;
3085;SDS011;52812;48.960;9.108;2023-07-24T02:29:30;9.30;;;6.00;;
3085;SDS011;52812;48.960;9.108;2023-07-24T02:31:56;7.70;;;5.27;;
3085;SDS011;52812;48.960;9.108;2023-07-24T02:34:23;9.80;;;5.90;;
3085;SDS011;52812;48.960;9.108;2023-07-24T02:36:54;11.90;;;6.13;;
3085;SDS011;52812;48.960;9.108;2023-07-24T02:39:20;9.70;;;5.80;;
3085;SDS011;52812;48.960;9.108;2023-07-24T02:41:47;8.07;;;5.20;;
3085;SDS011;52812;48.960;9.108;2023-07-24T02:44:13;11.37;;;6.27;;
3085;SDS011;52812;48.960;9.108;2023-07-24T02:46:39;11.67;;;6.27;;
3085;SDS011;52812;48.960;9.108;2023-07-24T02:49:04;10.30;;;6.27;;
3085;SDS011;52812;48.960;9.108;2023-07-24T02:51:30;10.50;;;6.23;;
3085;SDS011;52812;48.960;9.108;2023-07-24T02:53:56;10.90;;;6.23;;
3085;SDS011;52812;48.960;9.108;2023-07-24T02:56:22;9.83;;;6.80;;
3085;SDS011;52812;48.960;9.108;2023-07-24T02:58:47;9.97;;;6.33;;
3085;SDS011;52812;48.960;9.108;2023-07-24T03:01:13;12.33;;;5.80;;
3085;SDS011;52812;48.960;9.108;2023-07-24T03:03:42;10.47;;;6.67;;
3085;SDS011;52812;48.960;9.108;2023-07-24T03:06:08;11.30;;;6.03;;
3085;SDS011;52812;48.960;9.108;2023-07-24T03:08:33;9.87;;;6.00;;
3085;SDS011;52812;48.960;9.108;2023-07-24T03:10:59;11.50;;;6.30;;
3085;SDS011;52812;48.960;9.108;2023-07-24T03:13:27;11.20;;;6.53;;
3085;SDS011;52812;48.960;9.108;2023-07-24T03:15:56;12.30;;;6.40;;
3085;SDS011;52812;48.960;9.108;2023-07-24T03:18:22;10.37;;;6.20;;
3085;SDS011;52812;48.960;9.108;2023-07-24T03:20:48;11.33;;;6.47;;
3085;SDS011;52812;48.960;9.108;2023-07-24T03:23:14;10.60;;;6.37;;
3085;SDS011;52812;48.960;9.108;2023-07-24T03:25:40;9.27;;;5.83;;
3085;SDS011;52812;48.960;9.108;2023-07-24T03:28:06;11.43;;;6.20;;
3085;SDS011;52812;48.960;9.108;2023-07-24T03:30:31;11.83;;;6.67;;
3085;SDS011;52812;48.960;9.108;2023-07-24T03:32:57;10.50;;;5.80;;
3085;SDS011;52812;48.960;9.108;2023-07-24T03:35:23;11.03;;;5.53;;
3085;SDS011;52812;48.960;9.108;2023-07-24T03:37:49;11.37;;;5.87;;
3085;SDS011;52812;48.960;9.108;2023-07-24T03:40:14;9.57;;;5.90;;
3085;SDS011;52812;48.960;9.108;2023-07-24T03:42:40;11.93;;;6.10;;
3085;SDS011;52812;48.960;9.108;2023-07-24T03:45:06;9.73;;;5.90;;
3085;SDS011;52812;48.960;9.108;2023-07-24T03:47:33;10.57;;;5.60;;
3085;SDS011;52812;48.960;9.108;2023-07-24T03:49:59;9.60;;;6.30;;
3085;SDS011;52812;48.960;9.108;2023-07-24T03:52:24;11.33;;;6.23;;
3085;SDS011;52812;48.960;9.108;2023-07-24T03:54:51;12.30;;;6.53;;
3085;SDS011;52812;48.960;9.108;2023-07-24T03:57:17;8.10;;;5.23;;
3085;SDS011;52812;48.960;9.108;2023-07-24T03:59:43;10.33;;;6.20;;
3085;SDS011;52812;48.960;9.108;2023-07-24T04:02:08;9.90;;;5.87;;
3085;SDS011;52812;48.960;9.108;2023-07-24T04:04:34;9.60;;;5.50;;
3085;SDS011;52812;48.960;9.108;2023-07-24T04:07:00;10.30;;;6.20;;
3085;SDS011;52812;48.960;9.108;2023-07-24T04:09:26;9.80;;;6.13;;
3085;SDS011;52812;48.960;9.108;2023-07-24T04:11:52;9.00;;;5.70;;
3085;SDS011;52812;48.960;9.108;2023-07-24T04:14:17;9.70;;;5.67;;
3085;SDS011;52812;48.960;9.108;2023-07-24T04:16:43;13.43;;;6.00;;
3085;SDS011;52812;48.960;9.108;2023-07-24T04:19:10;11.40;;;6.50;;
3085;SDS011;52812;48.960;9.108;2023-07-24T04:21:35;9.97;;;5.97;;
3085;SDS011;52812;48.960;9.108;2023-07-24T04:24:01;11.73;;;6.40;;
3085;SDS011;52812;48.960;9.108;2023-07-24T04:26:27;10.20;;;5.60;;
3085;SDS011;52812;48.960;9.108;2023-07-24T04:28:53;10.50;;;6.20;;
3085;SDS011;52812;48.960;9.108;2023-07-24T04:31:18;9.00;;;5.60;;
3085;SDS011;52812;48.960;9.108;2023-07-24T04:33:44;10.70;;;6.30;;
3085;SDS011;52812;48.960;9.108;2023-07-24T04:36:09;9.60;;;5.87;;
3085;SDS011;52812;48.960;9.108;2023-07-24T04:38:35;8.63;;;5.73;;
3085;SDS011;52812;48.960;9.108;2023-07-24T04:41:01;10.83;;;5.87;;
3085;SDS011;52812;48.960;9.108;2023-07-24T04:43:27;13.47;;;7.03;;
3085;SDS011;52812;48.960;9.108;2023-07-24T04:45:53;12.20;;;6.93;;
3085;SDS011;52812;48.960;9.108;2023-07-24T04:48:19;11.00;;;6.00;;
3085;SDS011;52812;48.960;9.108;2023-07-24T04:50:45;10.53;;;6.00;;
3085;SDS011;52812;48.960;9.108;2023-07-24T04:53:10;13.03;;;6.53;;
3085;SDS011;52812;48.960;9.108;2023-07-24T04:55:36;8.87;;;5.70;;
3085;SDS011;52812;48.960;9.108;2023-07-24T04:58:01;10.70;;;6.10;;
3085;SDS011;52812;48.960;9.108;2023-07-24T05:00:27;10.60;;;6.80;;
3085;SDS011;52812;48.960;9.108;2023-07-24T05:02:53;10.43;;;6.27;;
3085;SDS011;52812;48.960;9.108;2023-07-24T05:05:18;9.63;;;5.83;;
3085;SDS011;52812;48.960;9.108;2023-07-24T05:07:44;9.40;;;5.90;;
3085;SDS011;52812;48.960;9.108;2023-07-24T05:10:10;11.43;;;6.47;;
3085;SDS011;52812;48.960;9.108;2023-07-24T05:12:36;12.10;;;6.43;;
3085;SDS011;52812;48.960;9.108;2023-07-24T05:15:01;10.90;;;5.87;;
3085;SDS011;52812;48.960;9.108;2023-07-24T05:17:27;10.77;;;6.30;;
3085;SDS011;52812;48.960;9.108;2023-07-24T05:19:53;9.40;;;6.10;;
3085;SDS011;52812;48.960;9.108;2023-07-24T05:22:18;8.57;;;5.47;;
3085;SDS011;52812;48.960;9.108;2023-07-24T05:24:44;10.90;;;6.50;;
3085;SDS011;52812;48.960;9.108;2023-07-24T05:27:10;11.73;;;6.10;;
3085;SDS011;52812;48.960;9.108;2023-07-24T05:29:37;10.40;;;6.50;;
3085;SDS011;52812;48.960;9.108;2023-07-24T05:32:03;11.23;;;6.43;;
3085;SDS011;52812;48.960;9.108;2023-07-24T05:34:29;11.33;;;6.20;;
3085;SDS011;52812;48.960;9.108;2023-07-24T05:36:54;10.40;;;6.30;;
3085;SDS011;52812;48.960;9.108;2023-07-24T05:39:20;10.97;;;6.30;;
3085;SDS011;52812;48.960;9.108;2023-07-24T05:41:46;12.97;;;7.47;;
3085;SDS011;52812;48.960;9.108;2023-07-24T05:44:13;9.20;;;6.07;;
3085;SDS011;52812;48.960;9.108;2023-07-24T05:46:38;10.57;;;5.93;;
3085;SDS011;52812;48.960;9.108;2023-07-24T05:49:04;9.20;;;5.87;;
3085;SDS011;52812;48.960;9.108;2023-07-24T05:51:30;9.57;;;6.60;;
3085;SDS011;52812;48.960;9.108;2023-07-24T05:53:55;9.90;;;5.90;;
3085;SDS011;52812;48.960;9.108;2023-07-24T05:56:21;13.77;;;6.63;;
3085;SDS011;52812;48.960;9.108;2023-07-24T05:58:46;10.30;;;6.50;;
3085;SDS011;52812;48.960;9.108;2023-07-24T06:01:12;9.40;;;6.40;;
3085;SDS011;52812;48.960;9.108;2023-07-24T06:03:39;10.23;;;6.43;;
3085;SDS011;52812;48.960;9.108;2023-07-24T06:06:04;10.40;;;6.03;;
3085;SDS011;52812;48.960;9.108;2023-07-24T06:08:30;8.60;;;5.90;;
3085;SDS011;52812;48.960;9.108;2023-07-24T06:10:55;11.13;;;6.60;;
3085;SDS011;52812;48.960;9.108;2023-07-24T06:13:21;9.80;;;6.20;;
3085;SDS011;52812;48.960;9.108;2023-07-24T06:15:47;11.33;;;6.00;;
3085;SDS011;52812;48.960;9.108;2023-07-24T06:18:13;9.93;;;5.77;;
3085;SDS011;52812;48.960;9.108;2023-07-24T06:20:39;10.30;;;6.57;;
3085;SDS011;52812;48.960;9.108;2023-07-24T06:23:05;11.97;;;6.50;;
3085;SDS011;52812;48.960;9.108;2023-07-24T06:25:31;10.93;;;7.83;;
3085;SDS011;52812;48.960;9.108;2023-07-24T06:27:57;13.70;;;6.20;;
3085;SDS011;52812;48.960;9.108;2023-07-24T06:30:23;11.07;;;6.10;;
3085;SDS011;52812;48.960;9.108;2023-07-24T06:32:48;10.43;;;6.47;;
3085;SDS011;52812;48.960;9.108;2023-07-24T06:35:14;12.63;;;6.87;;
3085;SDS011;52812;48.960;9.108;2023-07-24T06:37:40;9.57;;;6.50;;
3085;SDS011;52812;48.960;9.108;2023-07-24T06:40:06;9.77;;;6.00;;
3085;SDS011;52812;48.960;9.108;2023-07-24T06:42:32;11.33;;;6.67;;
3085;SDS011;52812;48.960;9.108;2023-07-24T06:44:58;11.87;;;6.57;;
3085;SDS011;52812;48.960;9.108;2023-07-24T06:47:24;9.60;;;6.00;;
3085;SDS011;52812;48.960;9.108;2023-07-24T06:49:50;11.57;;;7.07;;
3085;SDS011;52812;48.960;9.108;2023-07-24T06:52:15;14.93;;;7.13;;
3085;SDS011;52812;48.960;9.108;2023-07-24T06:54:41;12.40;;;6.90;;
3085;SDS011;52812;48.960;9.108;2023-07-24T06:57:07;11.30;;;6.40;;
3085;SDS011;52812;48.960;9.108;2023-07-24T06:59:32;10.73;;;6.10;;
3085;SDS011;52812;48.960;9.108;2023-07-24T07:01:58;11.83;;;6.70;;
3085;SDS011;52812;48.960;9.108;2023-07-24T07:04:24;12.47;;;6.23;;
3085;SDS011;52812;48.960;9.108;2023-07-24T07:06:49;10.07;;;6.17;;
3085;SDS011;52812;48.960;9.108;2023-07-24T07:09:15;10.50;;;6.70;;
3085;SDS011;52812;48.960;9.108;2023-07-24T07:11:40;12.00;;;6.20;;
3085;SDS011;52812;48.960;9.108;2023-07-24T07:14:08;12.17;;;7.00;;
3085;SDS011;52812;48.960;9.108;2023-07-24T07:16:34;11.83;;;6.70;;
3085;SDS011;52812;48.960;9.108;2023-07-24T07:19:00;9.70;;;6.27;;
3085;SDS011;52812;48.960;9.108;2023-07-24T07:21:26;10.13;;;6.30;;
3085;SDS011;52812;48.960;9.108;2023-07-24T07:23:51;9.60;;;6.27;;
3085;SDS011;52812;48.960;9.108;2023-07-24T07:26:17;10.00;;;6.53;;
3085;SDS011;52812;48.960;9.108;2023-07-24T07:28:43;12.07;;;6.30;;
3085;SDS011;52812;48.960;9.108;2023-07-24T07:31:10;11.60;;;7.20;;
3085;SDS011;52812;48.960;9.108;2023-07-24T07:33:35;8.73;;;6.43;;
3085;SDS011;52812;48.960;9.108;2023-07-24T07:36:01;11.53;;;6.10;;
3085;SDS011;52812;48.960;9.108;2023-07-24T07:38:28;12.83;;;6.43;;
3085;SDS011;52812;48.960;9.108;2023-07-24T07:40:54;10.83;;;6.07;;
3085;SDS011;52812;48.960;9.108;2023-07-24T07:43:20;9.30;;;6.10;;
3085;SDS011;52812;48.960;9.108;2023-07-24T07:45:46;9.97;;;6.27;;
3085;SDS011;52812;48.960;9.108;2023-07-24T07:48:12;10.10;;;5.90;;
3085;SDS011;52812;48.960;9.108;2023-07-24T07:50:38;9.67;;;6.40;;
3085;SDS011;52812;48.960;9.108;2023-07-24T07:53:03;11.70;;;6.30;;
3085;SDS011;52812;48.960;9.108;2023-07-24T07:55:29;11.20;;;6.70;;
3085;SDS011;52812;48.960;9.108;2023-07-24T07:57:54;9.73;;;5.60;;
3085;SDS011;52812;48.960;9.108;2023-07-24T08:00:21;11.90;;;6.83;;
3085;SDS011;52812;48.960;9.108;2023-07-24T08:02:47;10.47;;;6.73;;
3085;SDS011;52812;48.960;9.108;2023-07-24T08:05:13;11.63;;;7.20;;
3085;SDS011;52812;48.960;9.108;2023-07-24T08:07:38;12.67;;;7.13;;
3085;SDS011;52812;48.960;9.108;2023-07-24T08:10:04;12.70;;;7.33;;
3085;SDS011;52812;48.960;9.108;2023-07-24T08:12:31;10.77;;;6.40;;
3085;SDS011;52812;48.960;9.108;2023-07-24T08:14:57;11.90;;;7.10;;
3085;SDS011;52812;48.960;9.108;2023-07-24T08:17:22;11.83;;;6.60;;
3085;SDS011;52812;48.960;9.108;2023-07-24T08:19:48;11.17;;;6.43;;
3085;SDS011;52812;48.960;9.108;2023-07-24T08:22:13;12.43;;;7.20;;
3085;SDS011;52812;48.960;9.108;2023-07-24T08:24:39;12.50;;;7.40;;
3085;SDS011;52812;48.960;9.108;2023-07-24T08:27:05;14.80;;;7.03;;
3085;SDS011;52812;48.960;9.108;2023-07-24T08:29:30;10.30;;;6.50;;
3085;SDS011;52812;48.960;9.108;2023-07-24T08:31:56;11.37;;;7.13;;
3085;SDS011;52812;48.960;9.108;2023-07-24T08:34:22;13.97;;;8.27;;
3085;SDS011;52812;48.960;9.108;2023-07-24T08:36:47;10.97;;;6.40;;
3085;SDS011;52812;48.960;9.108;2023-07-24T08:39:13;11.47;;;6.97;;
3085;SDS011;52812;48.960;9.108;2023-07-24T08:41:39;13.70;;;7.80;;
3085;SDS011;52812;48.960;9.108;2023-07-24T08:44:05;13.70;;;7.30;;
3085;SDS011;52812;48.960;9.108;2023-07-24T08:46:35;13.67;;;7.07;;
3085;SDS011;52812;48.960;9.108;2023-07-24T08:49:01;12.73;;;7.33;;
3085;SDS011;52812;48.960;9.108;2023-07-24T08:51:28;16.23;;;7.50;;
3085;SDS011;52812;48.960;9.108;2023-07-24T08:53:56;13.73;;;6.73;;
3085;SDS011;52812;48.960;9.108;2023-07-24T08:56:22;11.53;;;7.00;;
3085;SDS011;52812;48.960;9.108;2023-07-24T08:58:48;11.27;;;7.20;;
3085;SDS011;52812;48.960;9.108;2023-07-24T09:01:14;12.23;;;6.80;;
3085;SDS011;52812;48.960;9.108;2023-07-24T09:03:39;10.90;;;6.77;;
3085;SDS011;52812;48.960;9.108;2023-07-24T09:06:05;10.67;;;6.53;;
3085;SDS011;52812;48.960;9.108;2023-07-24T09:08:38;14.73;;;7.53;;
3085;SDS011;52812;48.960;9.108;2023-07-24T09:11:05;11.67;;;6.57;;
3085;SDS011;52812;48.960;9.108;2023-07-24T09:13:32;11.70;;;6.80;;
3085;SDS011;52812;48.960;9.108;2023-07-24T09:15:58;10.07;;;6.33;;
3085;SDS011;52812;48.960;9.108;2023-07-24T09:18:24;14.07;;;7.60;;
3085;SDS011;52812;48.960;9.108;2023-07-24T09:20:50;13.90;;;7.23;;
3085;SDS011;52812;48.960;9.108;2023-07-24T09:23:16;11.40;;;6.33;;
3085;SDS011;52812;48.960;9.108;2023-07-24T09:25:53;12.13;;;7.10;;
3085;SDS011;52812;48.960;9.108;2023-07-24T09:28:19;12.13;;;7.03;;
3085;SDS011;52812;48.960;9.108;2023-07-24T09:30:55;10.57;;;6.73;;
3085;SDS011;52812;48.960;9.108;2023-07-24T09:33:22;9.73;;;6.37;;
3085;SDS011;52812;48.960;9.108;2023-07-24T09:35:59;10.27;;;6.60;;
3085;SDS011;52812;48.960;9.108;2023-07-24T09:38:25;12.27;;;6.00;;
3085;SDS011;52812;48.960;9.108;2023-07-24T09:40:52;10.20;;;6.57;;
3085;SDS011;52812;48.960;9.108;2023-07-24T09:43:22;10.80;;;6.60;;
3085;SDS011;52812;48.960;9.108;2023-07-24T09:45:49;10.77;;;6.83;;
3085;SDS011;52812;48.960;9.108;2023-07-24T09:48:17;9.00;;;6.10;;
3085;SDS011;52812;48.960;9.108;2023-07-24T09:50:44;9.83;;;6.47;;
3085;SDS011;52812;48.960;9.108;2023-07-24T09:58:26;11.20;;;6.17;;
3085;SDS011;52812;48.960;9.108;2023-07-24T10:00:52;8.70;;;5.93;;
3085;SDS011;52812;48.960;9.108;2023-07-24T10:03:19;10.20;;;6.90;;
3085;SDS011;52812;48.960;9.108;2023-07-24T10:05:47;10.73;;;6.57;;
3085;SDS011;52812;48.960;9.108;2023-07-24T10:08:16;9.90;;;6.63;;
3085;SDS011;52812;48.960;9.108;2023-07-24T10:10:43;11.70;;;6.60;;
3085;SDS011;52812;48.960;9.108;2023-07-24T10:13:10;10.77;;;6.13;;
3085;SDS011;52812;48.960;9.108;2023-07-24T10:15:39;11.83;;;7.40;;
3085;SDS011;52812;48.960;9.108;2023-07-24T10:18:06;9.03;;;6.30;;
3085;SDS011;52812;48.960;9.108;2023-07-24T10:20:40;10.80;;;6.20;;
3085;SDS011;52812;48.960;9.108;2023-07-24T10:23:08;10.10;;;6.30;;
3085;SDS011;52812;48.960;9.108;2023-07-24T10:25:35;9.50;;;6.10;;
3085;SDS011;52812;48.960;9.108;2023-07-24T10:28:06;7.67;;;5.60;;
3085;SDS011;52812;48.960;9.108;2023-07-24T10:30:35;9.70;;;6.00;;
3085;SDS011;52812;48.960;9.108;2023-07-24T10:33:09;9.20;;;6.27;;
3085;SDS011;52812;48.960;9.108;2023-07-24T10:35:40;9.33;;;5.90;;
3085;SDS011;52812;48.960;9.108;2023-07-24T10:38:13;9.30;;;5.90;;
3085;SDS011;52812;48.960;9.108;2023-07-24T10:40:40;8.73;;;5.53;;
3085;SDS011;52812;48.960;9.108;2023-07-24T10:43:07;7.63;;;5.50;;
3085;SDS011;52812;48.960;9.108;2023-07-24T10:48:12;8.27;;;5.70;;
3085;SDS011;52812;48.960;9.108;2023-07-24T10:50:42;8.40;;;6.03;;
3085;SDS011;52812;48.960;9.108;2023-07-24T10:53:10;8.60;;;5.83;;
3085;SDS011;52812;48.960;9.108;2023-07-24T10:55:36;9.60;;;6.10;;
3085;SDS011;52812;48.960;9.108;2023-07-24T10:58:02;11.77;;;6.30;;
3085;SDS011;52812;48.960;9.108;2023-07-24T11:00:28;9.93;;;5.67;;
3085;SDS011;52812;48.960;9.108;2023-07-24T11:02:54;8.80;;;5.57;;
3085;SDS011;52812;48.960;9.108;2023-07-24T11:05:23;8.77;;;5.60;;
3085;SDS011;52812;48.960;9.108;2023-07-24T11:07:49;9.70;;;5.67;;
3085;SDS011;52812;48.960;9.108;2023-07-24T11:10:19;9.17;;;5.37;;
3085;SDS011;52812;48.960;9.108;2023-07-24T11:12:46;9.10;;;5.93;;
3085;SDS011;52812;48.960;9.108;2023-07-24T11:15:12;10.70;;;5.87;;
3085;SDS011;52812;48.960;9.108;2023-07-24T11:17:39;8.40;;;5.10;;
3085;SDS011;52812;48.960;9.108;2023-07-24T11:22:37;8.23;;;5.73;;
3085;SDS011;52812;48.960;9.108;2023-07-24T11:25:04;9.50;;;6.13;;
3085;SDS011;52812;48.960;9.108;2023-07-24T11:27:31;8.33;;;5.63;;
3085;SDS011;52812;48.960;9.108;2023-07-24T11:29:57;8.43;;;5.00;;
3085;SDS011;52812;48.960;9.108;2023-07-24T11:32:22;9.30;;;5.90;;
3085;SDS011;52812;48.960;9.108;2023-07-24T11:34:48;8.83;;;5.67;;
3085;SDS011;52812;48.960;9.108;2023-07-24T11:37:15;8.07;;;5.40;;
3085;SDS011;52812;48.960;9.108;2023-07-24T11:39:41;9.30;;;5.83;;
3085;SDS011;52812;48.960;9.108;2023-07-24T11:42:07;8.17;;;5.50;;
3085;SDS011;52812;48.960;9.108;2023-07-24T11:44:32;7.57;;;5.67;;
3085;SDS011;52812;48.960;9.108;2023-07-24T11:47:05;9.20;;;5.57;;
3085;SDS011;52812;48.960;9.108;2023-07-24T11:49:31;7.63;;;5.27;;
3085;SDS011;52812;48.960;9.108;2023-07-24T11:52:04;7.53;;;5.20;;
3085;SDS011;52812;48.960;9.108;2023-07-24T11:54:33;9.50;;;5.90;;
3085;SDS011;52812;48.960;9.108;2023-07-24T11:57:00;8.30;;;4.87;;
3085;SDS011;52812;48.960;9.108;2023-07-24T11:59:25;8.33;;;5.20;;
3085;SDS011;52812;48.960;9.108;2023-07-24T12:01:51;7.60;;;5.53;;
3085;SDS011;52812;48.960;9.108;2023-07-24T12:04:17;7.60;;;5.20;;
3085;SDS011;52812;48.960;9.108;2023-07-24T12:06:44;8.13;;;5.20;;
3085;SDS011;52812;48.960;9.108;2023-07-24T12:09:13;7.30;;;4.93;;
3085;SDS011;52812;48.960;9.108;2023-07-24T12:11:39;7.13;;;5.33;;
3085;SDS011;52812;48.960;9.108;2023-07-24T12:14:08;6.53;;;4.70;;
3085;SDS011;52812;48.960;9.108;2023-07-24T12:16:38;8.80;;;5.40;;
3085;SDS011;52812;48.960;9.108;2023-07-24T12:19:03;7.40;;;4.70;;
3085;SDS011;52812;48.960;9.108;2023-07-24T12:21:29;8.00;;;5.00;;
3085;SDS011;52812;48.960;9.108;2023-07-24T12:23:55;7.70;;;4.80;;
3085;SDS011;52812;48.960;9.108;2023-07-24T12:26:20;8.17;;;5.20;;
3085;SDS011;52812;48.960;9.108;2023-07-24T12:28:47;7.33;;;4.30;;
3085;SDS011;52812;48.960;9.108;2023-07-24T12:31:12;6.93;;;4.67;;
3085;SDS011;52812;48.960;9.108;2023-07-24T12:33:38;7.70;;;5.43;;
3085;SDS011;52812;48.960;9.108;2023-07-24T12:36:04;6.73;;;4.70;;
3085;SDS011;52812;48.960;9.108;2023-07-24T12:38:29;8.23;;;5.20;;
3085;SDS011;52812;48.960;9.108;2023-07-24T12:40:55;6.90;;;4.43;;
3085;SDS011;52812;48.960;9.108;2023-07-24T12:43:21;7.70;;;4.97;;
3085;SDS011;52812;48.960;9.108;2023-07-24T12:45:46;7.90;;;4.97;;
3085;SDS011;52812;48.960;9.108;2023-07-24T12:48:12;7.40;;;4.63;;
3085;SDS011;52812;48.960;9.108;2023-07-24T12:50:38;6.77;;;4.57;;
3085;SDS011;52812;48.960;9.108;2023-07-24T12:53:03;5.80;;;4.43;;
3085;SDS011;52812;48.960;9.108;2023-07-24T12:55:29;13.47;;;5.00;;
3085;SDS011;52812;48.960;9.108;2023-07-24T12:57:54;6.83;;;4.33;;
3085;SDS011;52812;48.960;9.108;2023-07-24T13:00:21;7.60;;;4.80;;
3085;SDS011;52812;48.960;9.108;2023-07-24T13:02:47;9.47;;;5.00;;
3085;SDS011;52812;48.960;9.108;2023-07-24T13:05:12;7.63;;;4.80;;
3085;SDS011;52812;48.960;9.108;2023-07-24T13:07:38;8.67;;;5.40;;
3085;SDS011;52812;48.960;9.108;2023-07-24T13:10:04;9.00;;;5.60;;
3085;SDS011;52812;48.960;9.108;2023-07-24T13:12:30;9.90;;;5.27;;
3085;SDS011;52812;48.960;9.108;2023-07-24T13:14:56;7.27;;;5.10;;
3085;SDS011;52812;48.960;9.108;2023-07-24T13:17:21;7.20;;;4.83;;
3085;SDS011;52812;48.960;9.108;2023-07-24T13:19:47;6.73;;;5.00;;
3085;SDS011;52812;48.960;9.108;2023-07-24T13:22:13;7.30;;;4.50;;
3085;SDS011;52812;48.960;9.108;2023-07-24T13:24:39;6.17;;;4.07;;
3085;SDS011;52812;48.960;9.108;2023-07-24T13:27:04;6.37;;;4.40;;
3085;SDS011;52812;48.960;9.108;2023-07-24T13:29:30;7.37;;;5.00;;
3085;SDS011;52812;48.960;9.108;2023-07-24T13:31:56;6.10;;;4.53;;
3085;SDS011;52812;48.960;9.108;2023-07-24T13:34:23;6.97;;;4.20;;
3085;SDS011;52812;48.960;9.108;2023-07-24T13:36:49;7.50;;;4.50;;
3085;SDS011;52812;48.960;9.108;2023-07-24T13:39:15;8.63;;;4.90;;
3085;SDS011;52812;48.960;9.108;2023-07-24T13:41:40;5.67;;;4.03;;
3085;SDS011;52812;48.960;9.108;2023-07-24T13:44:06;5.27;;;4.23;;
3085;SDS011;52812;48.960;9.108;2023-07-24T13:46:32;6.73;;;4.30;;
3085;SDS011;52812;48.960;9.108;2023-07-24T13:48:58;7.57;;;4.50;;
3085;SDS011;52812;48.960;9.108;2023-07-24T13:51:23;6.90;;;4.40;;
3085;SDS011;52812;48.960;9.108;2023-07-24T13:53:49;7.30;;;4.50;;
3085;SDS011;52812;48.960;9.108;2023-07-24T13:56:17;6.57;;;4.83;;
3085;SDS011;52812;48.960;9.108;2023-07-24T13:58:43;8.30;;;4.73;;
3085;SDS011;52812;48.960;9.108;2023-07-24T14:01:09;5.60;;;4.30;;
3085;SDS011;52812;48.960;9.108;2023-07-24T14:03:35;6.40;;;4.37;;
3085;SDS011;52812;48.960;9.108;2023-07-24T14:06:01;5.70;;;4.13;;
3085;SDS011;52812;48.960;9.108;2023-07-24T14:08:27;6.73;;;4.17;;
3085;SDS011;52812;48.960;9.108;2023-07-24T14:10:52;6.90;;;4.50;;
3085;SDS011;52812;48.960;9.108;2023-07-24T14:13:18;6.00;;;4.23;;
3085;SDS011;52812;48.960;9.108;2023-07-24T14:15:44;6.17;;;4.03;;
3085;SDS011;52812;48.960;9.108;2023-07-24T14:18:09;6.73;;;4.23;;
3085;SDS011;52812;48.960;9.108;2023-07-24T14:20:35;5.60;;;4.13;;
3085;SDS011;52812;48.960;9.108;2023-07-24T14:23:02;7.47;;;4.80;;
3085;SDS011;52812;48.960;9.108;2023-07-24T14:25:27;5.80;;;4.10;;
3085;SDS011;52812;48.960;9.108;2023-07-24T14:27:53;7.87;;;4.60;;
3085;SDS011;52812;48.960;9.108;2023-07-24T14:30:19;6.07;;;4.57;;
3085;SDS011;52812;48.960;9.108;2023-07-24T14:32:45;6.83;;;4.80;;
3085;SDS011;52812;48.960;9.108;2023-07-24T14:35:11;6.70;;;4.63;;
3085;SDS011;52812;48.960;9.108;2023-07-24T14:37:36;7.63;;;4.90;;
3085;SDS011;52812;48.960;9.108;2023-07-24T14:40:02;8.13;;;5.17;;
3085;SDS011;52812;48.960;9.108;2023-07-24T14:42:28;7.67;;;4.73;;
3085;SDS011;52812;48.960;9.108;2023-07-24T14:44:54;7.23;;;4.57;;
3085;SDS011;52812;48.960;9.108;2023-07-24T14:47:20;7.77;;;5.47;;
3085;SDS011;52812;48.960;9.108;2023-07-24T14:49:45;6.37;;;4.60;;
3085;SDS011;52812;48.960;9.108;2023-07-24T14:52:11;5.83;;;4.60;;
3085;SDS011;52812;48.960;9.108;2023-07-24T14:54:36;7.00;;;4.77;;
3085;SDS011;52812;48.960;9.108;2023-07-24T14:57:02;7.20;;;4.80;;
3085;SDS011;52812;48.960;9.108;2023-07-24T14:59:28;5.70;;;4.60;;
3085;SDS011;52812;48.960;9.108;2023-07-24T15:01:54;8.57;;;5.00;;
3085;SDS011;52812;48.960;9.108;2023-07-24T15:04:19;6.10;;;4.50;;